Time;durP1;ratioP1;P1;durP2;ratioP2;P2;SDS_P1;SDS_P2;PMS_P1;PMS_P2;Temp;Humidity;BMP_temperature;BMP_pressure;BME280_temperature;BME280_humidity;BME280_pressure;Samples;Min_cycle;Max_cycle;Signal;HPM_P1;HPM_P2
2023/09/18 00:01:08;;;;;;;10.67;6.67;;;17.60;78.60;;;;;;4860544;29;20049;-90
2023/09/18 00:03:35;;;;;;;10.95;6.78;;;17.60;78.60;;;;;;4866140;29;20041;-89
2023/09/18 00:06:02;;;;;;;11.40;6.60;;;17.60;78.50;;;;;;4865235;29;20060;-89
2023/09/18 00:08:29;;;;;;;11.55;6.13;;;17.60;78.50;;;;;;4849694;29;20049;-90
2023/09/18 00:10:57;;;;;;;10.80;6.53;;;17.60;78.50;;;;;;4849989;29;20057;-90
2023/09/18 00:13:24;;;;;;;11.60;6.90;;;17.60;78.50;;;;;;4849531;29;20049;-89
2023/09/18 00:15:55;;;;;;;11.00;6.78;;;17.60;78.60;;;;;;4854110;29;20060;-89
2023/09/18 00:18:22;;;;;;;13.35;6.95;;;17.60;78.60;;;;;;4868108;29;20053;-90
2023/09/18 00:20:51;;;;;;;13.75;7.57;;;17.60;78.70;;;;;;4856421;29;20424;-90
2023/09/18 00:23:19;;;;;;;13.27;7.50;;;17.60;78.80;;;;;;4864832;29;20060;-89
2023/09/18 00:25:46;;;;;;;12.07;7.33;;;17.50;78.60;;;;;;4849656;29;20049;-89
2023/09/18 00:28:13;;;;;;;11.65;6.97;;;17.60;78.60;;;;;;4864760;29;20143;-90
2023/09/18 00:30:48;;;;;;;11.98;7.10;;;17.60;78.50;;;;;;4849993;29;20045;-90
2023/09/18 00:33:16;;;;;;;11.70;7.28;;;17.60;78.50;;;;;;4867701;29;20143;-89
2023/09/18 00:35:50;;;;;;;14.70;7.47;;;17.60;78.50;;;;;;4867550;29;20080;-89
2023/09/18 00:38:19;;;;;;;12.03;7.50;;;17.60;78.50;;;;;;4867305;29;20135;-90
2023/09/18 00:40:47;;;;;;;13.52;7.72;;;17.50;78.60;;;;;;4862746;29;20069;-90
2023/09/18 00:43:14;;;;;;;11.90;7.95;;;17.50;78.60;;;;;;4879988;29;20435;-89
2023/09/18 00:45:45;;;;;;;14.32;8.43;;;17.50;78.70;;;;;;4880646;29;20073;-89
2023/09/18 00:48:15;;;;;;;11.80;7.57;;;17.50;78.70;;;;;;4882990;29;20056;-89
2023/09/18 00:50:48;;;;;;;12.27;7.87;;;17.50;78.70;;;;;;4867664;29;20618;-89
2023/09/18 00:53:19;;;;;;;12.30;7.97;;;17.50;78.70;;;;;;4867804;29;20411;-89
2023/09/18 00:55:47;;;;;;;13.18;8.00;;;17.50;78.50;;;;;;4867463;29;20044;-89
2023/09/18 00:58:15;;;;;;;12.55;8.40;;;17.50;78.60;;;;;;4856202;29;20045;-89
2023/09/18 01:00:43;;;;;;;15.50;7.90;;;17.50;78.70;;;;;;4864095;29;20473;-89
2023/09/18 01:03:11;;;;;;;12.83;7.93;;;17.50;78.70;;;;;;4848981;29;20076;-89
2023/09/18 01:05:39;;;;;;;13.50;8.68;;;17.50;78.60;;;;;;4864198;29;20045;-89
2023/09/18 01:08:06;;;;;;;14.55;8.93;;;17.50;78.60;;;;;;4851973;29;20048;-90
2023/09/18 01:11:08;;;;;;;13.80;8.73;;;17.50;78.50;;;;;;4868353;29;20172;-89
2023/09/18 01:13:51;;;;;;;12.65;7.95;;;17.50;78.50;;;;;;4819109;29;20052;-90
2023/09/18 01:16:26;;;;;;;13.90;7.73;;;17.50;78.50;;;;;;4870523;29;20419;-89
2023/09/18 01:18:53;;;;;;;14.05;9.05;;;17.50;78.60;;;;;;4882051;29;20072;-90
2023/09/18 01:21:23;;;;;;;15.45;9.32;;;17.50;78.70;;;;;;4850342;29;20559;-89
2023/09/18 01:23:51;;;;;;;14.88;9.00;;;17.50;78.60;;;;;;4864054;29;20049;-89
2023/09/18 01:26:18;;;;;;;13.00;8.50;;;17.50;78.70;;;;;;4863903;29;20049;-90
2023/09/18 01:28:45;;;;;;;13.87;8.57;;;17.50;78.70;;;;;;4848573;29;20053;-90
2023/09/18 01:31:12;;;;;;;16.08;9.07;;;17.50;78.80;;;;;;4848554;29;20053;-90
2023/09/18 01:33:40;;;;;;;13.63;8.75;;;17.50;78.80;;;;;;4848883;29;20048;-90
2023/09/18 01:36:08;;;;;;;15.65;9.15;;;17.50;78.60;;;;;;4848355;29;20101;-90
2023/09/18 01:38:36;;;;;;;14.35;9.15;;;17.50;78.60;;;;;;4863803;29;20049;-89
2023/09/18 01:41:04;;;;;;;13.70;8.80;;;17.50;78.60;;;;;;4850988;29;20053;-89
2023/09/18 01:43:31;;;;;;;13.13;8.68;;;17.50;78.70;;;;;;4863776;29;20049;-90
2023/09/18 01:45:58;;;;;;;13.98;9.18;;;17.50;78.70;;;;;;4863947;29;20144;-89
2023/09/18 01:48:26;;;;;;;14.15;10.13;;;17.50;78.70;;;;;;4863735;29;20049;-89
2023/09/18 01:50:53;;;;;;;17.33;9.77;;;17.50;78.70;;;;;;4875479;29;20055;-90
2023/09/18 01:53:20;;;;;;;14.43;9.80;;;17.50;78.70;;;;;;4867258;29;20041;-89
2023/09/18 01:55:47;;;;;;;16.52;9.05;;;17.50;78.60;;;;;;4867489;29;20123;-89
2023/09/18 01:58:14;;;;;;;15.05;9.27;;;17.50;78.70;;;;;;4882680;29;20045;-89
2023/09/18 02:04:00;;;;;;;14.05;9.20;;;17.50;78.90;;;;;;4830835;23;20498;-87
2023/09/18 02:06:49;;;;;;;15.67;9.63;;;17.50;78.80;;;;;;4873154;29;20131;-87
2023/09/18 02:09:17;;;;;;;14.60;9.23;;;17.50;78.90;;;;;;4870420;29;20048;-87
2023/09/18 02:11:46;;;;;;;13.90;9.30;;;17.40;78.90;;;;;;4885907;29;20048;-87
2023/09/18 02:14:14;;;;;;;14.20;9.50;;;17.40;78.80;;;;;;4870383;29;20057;-87
2023/09/18 02:16:46;;;;;;;14.27;9.40;;;17.40;79.00;;;;;;4885709;29;20048;-86
2023/09/18 02:19:13;;;;;;;13.70;9.17;;;17.40;79.10;;;;;;4885644;29;20045;-86
2023/09/18 02:21:41;;;;;;;15.65;9.48;;;17.30;79.20;;;;;;4876438;29;20045;-87
2023/09/18 02:24:09;;;;;;;14.52;9.70;;;17.30;79.30;;;;;;4851681;29;20128;-87
2023/09/18 02:26:36;;;;;;;16.27;9.43;;;17.30;79.30;;;;;;4851553;29;20503;-87
2023/09/18 02:29:09;;;;;;;18.63;10.25;;;17.30;79.40;;;;;;4851825;29;20570;-87
2023/09/18 02:31:36;;;;;;;14.73;9.47;;;17.30;79.40;;;;;;4851494;29;20536;-87
2023/09/18 02:34:03;;;;;;;15.35;10.45;;;17.30;79.50;;;;;;4851605;29;20085;-87
2023/09/18 02:36:31;;;;;;;16.33;9.88;;;17.30;79.60;;;;;;4866602;29;20053;-87
2023/09/18 02:38:58;;;;;;;15.95;9.32;;;17.30;79.40;;;;;;4865982;29;20463;-87
2023/09/18 02:41:25;;;;;;;15.88;10.98;;;17.30;79.30;;;;;;4885387;29;20125;-87
2023/09/18 02:43:52;;;;;;;16.90;10.80;;;17.30;79.40;;;;;;4869562;29;20092;-87
2023/09/18 02:46:19;;;;;;;15.82;10.32;;;17.30;79.30;;;;;;4885057;29;20068;-87
2023/09/18 02:48:46;;;;;;;17.15;11.00;;;17.30;79.40;;;;;;4884964;29;20063;-87
2023/09/18 02:51:13;;;;;;;15.98;10.15;;;17.30;79.50;;;;;;4885011;29;20570;-87
2023/09/18 02:53:40;;;;;;;15.85;11.55;;;17.40;79.50;;;;;;4885230;29;20068;-86
2023/09/18 02:56:07;;;;;;;16.77;11.13;;;17.50;79.40;;;;;;4869699;29;20045;-86
2023/09/18 02:58:34;;;;;;;15.02;9.88;;;17.50;79.20;;;;;;4884986;29;20048;-87
2023/09/18 03:01:03;;;;;;;16.50;11.02;;;17.50;79.00;;;;;;4884135;29;20048;-87
2023/09/18 03:03:31;;;;;;;17.02;11.48;;;17.50;79.00;;;;;;4869382;29;20494;-87
2023/09/18 03:06:06;;;;;;;18.38;10.88;;;17.50;79.00;;;;;;4884653;29;20048;-87
2023/09/18 03:08:34;;;;;;;17.97;11.00;;;17.50;78.80;;;;;;4885017;29;20139;-87
2023/09/18 03:11:03;;;;;;;15.00;9.85;;;17.50;78.90;;;;;;4884606;29;20554;-87
2023/09/18 03:13:31;;;;;;;16.38;10.55;;;17.40;78.90;;;;;;4884784;29;20048;-87
2023/09/18 03:15:58;;;;;;;15.13;9.90;;;17.40;78.90;;;;;;4884688;29;20048;-86
2023/09/18 03:18:27;;;;;;;16.13;10.52;;;17.30;79.00;;;;;;4884335;29;20053;-86
2023/09/18 03:20:54;;;;;;;16.17;10.37;;;17.40;79.10;;;;;;4884586;29;20048;-87
2023/09/18 03:23:22;;;;;;;16.27;11.00;;;17.30;79.30;;;;;;4884373;29;20081;-87
2023/09/18 03:25:49;;;;;;;16.17;10.70;;;17.30;79.20;;;;;;4884271;29;20108;-87
2023/09/18 03:28:19;;;;;;;16.98;10.20;;;17.30;79.30;;;;;;4884191;29;20435;-87
2023/09/18 03:30:47;;;;;;;16.90;10.77;;;17.30;79.30;;;;;;4884466;29;20447;-87
2023/09/18 03:33:17;;;;;;;15.57;10.20;;;17.20;79.30;;;;;;4884290;29;20049;-87
2023/09/18 03:35:49;;;;;;;16.60;10.73;;;17.20;79.40;;;;;;4884135;29;20054;-86
2023/09/18 03:38:21;;;;;;;16.08;10.45;;;17.10;79.70;;;;;;4869150;29;20067;-86
2023/09/18 03:40:48;;;;;;;15.20;10.00;;;17.10;79.70;;;;;;4884635;29;20057;-87
2023/09/18 03:43:15;;;;;;;15.68;10.32;;;17.10;79.70;;;;;;4884195;29;20045;-86
2023/09/18 03:45:43;;;;;;;16.63;11.03;;;17.10;79.80;;;;;;4883864;29;20083;-86
2023/09/18 03:48:10;;;;;;;17.38;10.27;;;17.20;79.70;;;;;;4884224;29;20056;-87
2023/09/18 03:50:39;;;;;;;16.35;11.50;;;17.20;79.70;;;;;;4868704;29;20104;-87
2023/09/18 03:53:08;;;;;;;16.02;10.82;;;17.10;79.70;;;;;;4883922;29;20137;-87
2023/09/18 03:55:36;;;;;;;17.48;11.25;;;17.20;79.70;;;;;;4883795;29;20123;-87
2023/09/18 03:58:05;;;;;;;16.60;10.80;;;17.20;79.70;;;;;;4883832;29;20068;-86
2023/09/18 04:00:32;;;;;;;18.05;10.98;;;17.20;79.60;;;;;;4883967;29;20045;-86
2023/09/18 04:02:59;;;;;;;16.98;11.10;;;17.10;79.70;;;;;;4883504;29;20120;-87
2023/09/18 04:05:27;;;;;;;16.88;10.50;;;17.10;79.70;;;;;;4883676;29;20084;-86
2023/09/18 04:07:56;;;;;;;17.15;10.70;;;17.10;79.70;;;;;;4883631;29;20139;-87
2023/09/18 04:10:23;;;;;;;16.37;10.93;;;17.10;79.70;;;;;;4883808;29;20573;-86
2023/09/18 04:12:51;;;;;;;16.52;10.52;;;17.10;79.90;;;;;;4882651;29;20174;-87
2023/09/18 04:15:19;;;;;;;17.83;10.70;;;17.20;79.70;;;;;;4868389;29;20090;-87
2023/09/18 04:17:48;;;;;;;18.35;10.75;;;17.20;79.70;;;;;;4883365;29;20128;-86
2023/09/18 04:20:15;;;;;;;18.02;11.35;;;17.20;79.60;;;;;;4883458;29;20080;-86
2023/09/18 04:22:49;;;;;;;17.43;11.20;;;17.20;79.60;;;;;;4883407;29;20131;-87
2023/09/18 04:25:18;;;;;;;16.67;10.85;;;17.20;79.60;;;;;;4868079;29;20048;-87
2023/09/18 04:27:49;;;;;;;17.35;10.75;;;17.20;79.80;;;;;;4883399;29;20056;-86
2023/09/18 04:30:19;;;;;;;16.25;10.73;;;17.20;79.80;;;;;;4883469;29;20075;-86
2023/09/18 04:32:47;;;;;;;16.58;11.25;;;17.20;79.70;;;;;;4883266;29;20059;-86
2023/09/18 04:35:15;;;;;;;19.17;11.37;;;17.20;79.80;;;;;;4883077;29;20521;-87
2023/09/18 04:37:42;;;;;;;15.23;10.57;;;17.20;79.70;;;;;;4883004;29;20049;-87
2023/09/18 04:40:10;;;;;;;16.63;10.80;;;17.20;79.70;;;;;;4882972;29;20056;-86
2023/09/18 04:42:39;;;;;;;17.92;10.52;;;17.20;79.70;;;;;;4883170;29;20049;-86
2023/09/18 04:45:07;;;;;;;17.25;11.32;;;17.30;79.70;;;;;;4882893;29;20064;-86
2023/09/18 04:47:36;;;;;;;15.57;10.97;;;17.30;79.70;;;;;;4882924;29;20084;-86
2023/09/18 04:50:09;;;;;;;23.48;12.15;;;17.30;79.60;;;;;;4882865;29;20048;-87
2023/09/18 04:52:42;;;;;;;17.33;11.50;;;17.40;79.60;;;;;;4882937;29;20049;-87
2023/09/18 04:55:11;;;;;;;18.10;11.45;;;17.50;79.40;;;;;;4883119;29;20053;-87
2023/09/18 04:57:38;;;;;;;18.15;12.65;;;17.50;79.20;;;;;;4867424;29;20073;-87
2023/09/18 05:00:12;;;;;;;20.67;12.17;;;17.50;79.10;;;;;;4882781;29;20091;-86
2023/09/18 05:02:44;;;;;;;18.15;12.40;;;17.50;78.90;;;;;;4882851;29;20131;-87
2023/09/18 05:05:13;;;;;;;17.98;11.98;;;17.50;78.80;;;;;;4882863;29;20151;-87
2023/09/18 05:07:41;;;;;;;18.65;12.68;;;17.50;78.80;;;;;;4882808;29;20048;-87
2023/09/18 05:10:09;;;;;;;20.58;12.43;;;17.50;78.70;;;;;;4882614;29;20052;-87
2023/09/18 05:12:39;;;;;;;19.50;12.87;;;17.50;78.80;;;;;;4882899;29;20049;-87
2023/09/18 05:15:09;;;;;;;19.38;11.55;;;17.50;78.80;;;;;;4882696;29;20151;-87
2023/09/18 05:17:46;;;;;;;17.25;11.48;;;17.50;78.90;;;;;;4867172;29;20044;-87
2023/09/18 05:20:16;;;;;;;18.13;11.82;;;17.50;79.00;;;;;;4882423;29;20555;-86
2023/09/18 05:22:45;;;;;;;18.77;11.13;;;17.50;79.00;;;;;;4882685;29;20054;-87
2023/09/18 05:25:16;;;;;;;17.70;11.53;;;17.60;79.00;;;;;;4867114;29;20053;-87
2023/09/18 05:27:47;;;;;;;20.92;11.70;;;17.70;79.00;;;;;;4867688;29;20048;-87
2023/09/18 05:30:16;;;;;;;18.98;11.85;;;17.80;78.80;;;;;;4882614;29;20418;-87
2023/09/18 05:32:44;;;;;;;16.85;12.20;;;17.80;78.70;;;;;;4882543;29;20088;-87
2023/09/18 05:35:12;;;;;;;17.50;11.20;;;17.90;78.40;;;;;;4882551;29;20111;-87
2023/09/18 05:37:41;;;;;;;16.93;11.27;;;18.00;78.50;;;;;;4882343;29;20037;-87
2023/09/18 05:40:10;;;;;;;18.73;11.75;;;18.10;78.20;;;;;;4882493;29;20100;-86
2023/09/18 05:42:43;;;;;;;18.33;11.80;;;18.20;78.00;;;;;;4882295;29;20052;-87
2023/09/18 05:45:14;;;;;;;20.00;11.75;;;18.30;77.70;;;;;;4882424;29;20049;-87
2023/09/18 05:47:42;;;;;;;16.73;11.68;;;18.40;77.50;;;;;;4882237;29;20087;-87
2023/09/18 05:50:16;;;;;;;15.57;11.37;;;18.50;77.40;;;;;;4882264;29;20107;-88
2023/09/18 05:52:48;;;;;;;16.70;11.02;;;18.50;77.20;;;;;;4882565;29;20522;-87
2023/09/18 05:55:15;;;;;;;16.83;11.35;;;18.60;76.70;;;;;;4866838;29;20148;-87
2023/09/18 05:57:42;;;;;;;17.88;11.73;;;18.80;76.80;;;;;;4866520;29;20056;-87
2023/09/18 06:00:14;;;;;;;15.93;11.13;;;18.80;76.40;;;;;;4882224;29;20048;-87
2023/09/18 06:02:41;;;;;;;17.23;10.90;;;19.00;76.10;;;;;;4882254;29;20053;-87
2023/09/18 06:05:11;;;;;;;16.25;10.93;;;19.10;75.90;;;;;;4882283;29;20053;-87
2023/09/18 06:07:39;;;;;;;16.02;11.65;;;19.20;75.70;;;;;;4882083;29;20414;-87
2023/09/18 06:10:06;;;;;;;17.08;10.95;;;19.30;75.50;;;;;;4882290;29;20060;-87
2023/09/18 06:12:33;;;;;;;19.23;11.57;;;19.50;75.00;;;;;;4882193;29;20048;-87
2023/09/18 06:15:00;;;;;;;17.77;11.10;;;19.50;74.60;;;;;;4882188;29;20053;-87
2023/09/18 06:17:27;;;;;;;17.08;11.43;;;19.60;74.20;;;;;;4867294;29;20061;-86
2023/09/18 06:19:55;;;;;;;16.23;11.02;;;19.70;73.80;;;;;;4866727;29;20045;-87
2023/09/18 06:22:22;;;;;;;15.63;10.70;;;19.90;74.10;;;;;;4882018;29;20144;-87
2023/09/18 06:24:49;;;;;;;15.38;10.32;;;20.00;73.10;;;;;;4881905;29;20093;-87
2023/09/18 06:27:16;;;;;;;15.07;10.80;;;20.10;73.00;;;;;;4866690;29;20044;-87
2023/09/18 06:29:43;;;;;;;15.85;11.48;;;20.10;72.70;;;;;;4866713;29;20051;-86
2023/09/18 06:32:10;;;;;;;18.85;10.70;;;20.20;72.80;;;;;;4881931;29;20550;-87
2023/09/18 06:34:38;;;;;;;17.08;10.80;;;20.30;72.10;;;;;;4863720;29;20559;-87
2023/09/18 06:37:07;;;;;;;16.23;11.43;;;20.50;72.10;;;;;;4884858;29;20462;-87
2023/09/18 06:39:34;;;;;;;17.10;10.93;;;20.60;71.80;;;;;;4885229;29;20053;-87
2023/09/18 06:42:01;;;;;;;17.20;11.35;;;20.70;71.80;;;;;;4885256;29;20418;-86
2023/09/18 06:44:28;;;;;;;16.60;11.00;;;20.70;71.30;;;;;;4885541;29;20148;-87
2023/09/18 06:46:55;;;;;;;16.88;11.25;;;20.80;70.90;;;;;;4884919;29;20059;-87
2023/09/18 06:49:24;;;;;;;19.55;11.60;;;20.90;70.80;;;;;;4879071;29;20053;-87
2023/09/18 06:51:51;;;;;;;17.00;10.67;;;20.90;71.30;;;;;;4851080;29;20085;-87
2023/09/18 06:54:18;;;;;;;16.38;10.98;;;21.10;70.60;;;;;;4866646;29;20060;-87
2023/09/18 06:56:45;;;;;;;17.08;11.63;;;21.10;70.50;;;;;;4851184;29;20056;-87
2023/09/18 06:59:12;;;;;;;16.55;11.45;;;21.20;70.40;;;;;;4851313;29;20056;-87
2023/09/18 07:01:41;;;;;;;19.27;12.27;;;21.30;70.10;;;;;;4866299;29;20080;-87
2023/09/18 07:04:09;;;;;;;16.27;11.40;;;21.40;69.80;;;;;;4850728;29;20049;-87
2023/09/18 07:06:36;;;;;;;15.43;11.27;;;21.50;70.00;;;;;;4866229;29;20519;-87
2023/09/18 07:09:06;;;;;;;15.55;10.82;;;21.60;70.00;;;;;;4861149;29;20056;-86
2023/09/18 07:11:34;;;;;;;16.67;11.68;;;21.60;69.10;;;;;;4884810;29;20049;-86
2023/09/18 07:14:02;;;;;;;19.75;11.65;;;21.60;69.30;;;;;;4884535;29;20541;-87
2023/09/18 07:16:29;;;;;;;16.90;10.50;;;21.70;69.40;;;;;;4884714;29;20392;-87
2023/09/18 07:18:56;;;;;;;17.25;11.13;;;21.80;68.20;;;;;;4869091;29;20104;-87
2023/09/18 07:21:23;;;;;;;16.73;10.82;;;21.90;68.40;;;;;;4869296;29;20056;-87
2023/09/18 07:23:51;;;;;;;16.73;11.20;;;22.00;68.40;;;;;;4884457;29;20049;-87
2023/09/18 07:26:18;;;;;;;16.77;11.85;;;22.00;68.10;;;;;;4884492;29;20052;-87
2023/09/18 07:28:45;;;;;;;15.10;11.77;;;22.10;67.70;;;;;;4876979;29;20057;-87
2023/09/18 07:31:14;;;;;;;17.58;11.48;;;22.10;68.60;;;;;;4865686;29;20140;-87
2023/09/18 07:33:41;;;;;;;26.15;11.35;;;22.20;67.70;;;;;;4865927;29;20047;-87
2023/09/18 07:36:10;;;;;;;16.65;11.88;;;22.30;67.70;;;;;;4865567;29;20060;-87
2023/09/18 07:38:43;;;;;;;17.20;11.50;;;22.30;67.60;;;;;;4865544;29;20049;-87
2023/09/18 07:41:10;;;;;;;20.50;12.00;;;22.30;67.80;;;;;;4865520;29;20049;-87
2023/09/18 07:43:39;;;;;;;17.48;11.35;;;22.50;66.60;;;;;;4850222;29;20495;-87
2023/09/18 07:46:06;;;;;;;17.27;11.57;;;22.60;66.20;;;;;;4850160;29;20148;-87
2023/09/18 07:48:34;;;;;;;20.63;11.65;;;22.60;68.10;;;;;;4865547;29;20116;-87
2023/09/18 07:51:01;;;;;;;24.10;13.05;;;22.60;66.30;;;;;;4865368;29;20060;-87
2023/09/18 07:53:28;;;;;;;19.27;12.80;;;22.70;66.80;;;;;;4865475;29;20551;-87
2023/09/18 07:55:57;;;;;;;18.00;12.88;;;22.70;66.10;;;;;;4875645;29;20053;-87
2023/09/18 07:58:27;;;;;;;20.38;12.40;;;22.80;66.40;;;;;;4883670;29;20044;-87
2023/09/18 08:00:57;;;;;;;19.33;12.88;;;22.80;66.30;;;;;;4868326;29;20052;-87
2023/09/18 08:03:25;;;;;;;20.90;12.35;;;22.80;65.60;;;;;;4883549;29;20063;-87
2023/09/18 08:05:53;;;;;;;17.40;11.70;;;22.90;66.70;;;;;;4883857;29;20083;-87
2023/09/18 08:08:22;;;;;;;16.65;11.48;;;23.00;65.70;;;;;;4854813;29;20049;-86
2023/09/18 08:10:50;;;;;;;17.20;11.38;;;23.00;66.70;;;;;;4849816;29;20466;-86
2023/09/18 08:13:19;;;;;;;16.88;10.68;;;23.10;65.60;;;;;;4854550;29;20055;-87
2023/09/18 08:15:46;;;;;;;16.55;11.30;;;23.10;65.20;;;;;;4883668;29;20051;-87
2023/09/18 08:18:13;;;;;;;16.87;10.53;;;23.20;65.50;;;;;;4883124;29;20052;-87
2023/09/18 08:20:44;;;;;;;17.10;10.98;;;23.30;65.80;;;;;;4883522;29;20044;-87
2023/09/18 08:23:12;;;;;;;17.38;11.18;;;23.40;64.40;;;;;;4884033;29;20048;-87
2023/09/18 08:25:42;;;;;;;17.48;11.25;;;23.40;64.00;;;;;;4883412;29;20502;-86
2023/09/18 08:28:09;;;;;;;17.55;11.85;;;23.40;63.90;;;;;;4868156;29;20073;-87
2023/09/18 08:30:39;;;;;;;16.33;11.30;;;23.50;65.10;;;;;;4883323;29;20569;-87
2023/09/18 08:33:06;;;;;;;15.68;11.45;;;23.60;64.50;;;;;;4883175;29;20121;-87
2023/09/18 08:35:33;;;;;;;16.70;12.27;;;23.60;64.10;;;;;;4883982;29;20053;-87
2023/09/18 08:38:00;;;;;;;20.27;11.15;;;23.70;64.90;;;;;;4867635;29;20055;-87
2023/09/18 08:40:28;;;;;;;16.30;11.15;;;23.70;63.80;;;;;;4883219;29;20104;-87
2023/09/18 08:42:56;;;;;;;16.87;11.37;;;23.80;63.70;;;;;;4867860;29;20135;-87
2023/09/18 08:45:33;;;;;;;23.75;11.40;;;23.90;64.60;;;;;;4882923;29;20087;-87
2023/09/18 08:48:01;;;;;;;17.10;10.93;;;24.00;63.70;;;;;;4883016;29;20116;-87
2023/09/18 08:50:29;;;;;;;14.45;9.90;;;24.10;63.40;;;;;;4882899;29;20048;-87
2023/09/18 08:52:57;;;;;;;17.80;10.93;;;24.10;62.10;;;;;;4867710;29;20044;-87
2023/09/18 08:55:24;;;;;;;14.83;11.17;;;24.10;63.30;;;;;;4882796;29;20387;-87
2023/09/18 08:57:53;;;;;;;14.73;10.05;;;24.10;62.30;;;;;;4882949;29;20083;-87
2023/09/18 09:00:20;;;;;;;14.45;10.10;;;24.20;62.60;;;;;;4867231;29;20096;-87
2023/09/18 09:02:50;;;;;;;15.68;10.27;;;24.10;63.00;;;;;;4882864;29;20529;-87
2023/09/18 09:05:18;;;;;;;14.18;10.10;;;24.10;62.00;;;;;;4882617;29;20049;-87
2023/09/18 09:07:45;;;;;;;17.50;10.73;;;24.20;63.00;;;;;;4882873;29;20048;-87
2023/09/18 09:10:12;;;;;;;13.95;10.63;;;24.40;62.70;;;;;;4882502;29;20056;-86
2023/09/18 09:12:53;;;;;;;14.93;10.07;;;24.40;61.30;;;;;;4882832;29;20071;-87
2023/09/18 09:15:23;;;;;;;15.13;10.00;;;24.40;61.50;;;;;;4882590;29;20079;-87
2023/09/18 09:17:52;;;;;;;14.10;10.10;;;24.40;61.90;;;;;;4882560;29;20147;-87
2023/09/18 09:20:19;;;;;;;14.73;10.37;;;24.50;62.00;;;;;;4882436;29;20045;-87
2023/09/18 09:22:47;;;;;;;16.50;10.18;;;24.60;61.80;;;;;;4875794;29;20045;-87
2023/09/18 09:25:23;;;;;;;13.45;9.70;;;24.60;61.20;;;;;;4864058;29;20500;-87
2023/09/18 09:27:50;;;;;;;14.90;9.88;;;24.60;60.20;;;;;;4863897;29;20053;-87
2023/09/18 09:30:23;;;;;;;14.30;10.55;;;24.70;60.90;;;;;;4848674;29;20053;-87
2023/09/18 09:32:52;;;;;;;14.63;10.20;;;24.90;61.60;;;;;;4864435;29;20533;-87
2023/09/18 09:35:27;;;;;;;16.38;10.25;;;25.00;60.40;;;;;;4864115;29;20562;-87
2023/09/18 09:37:58;;;;;;;17.17;9.43;;;25.00;60.30;;;;;;4863939;29;20097;-87
2023/09/18 09:40:26;;;;;;;15.02;9.43;;;25.00;59.10;;;;;;4848404;29;20052;-87
2023/09/18 09:43:00;;;;;;;12.95;8.55;;;24.90;60.40;;;;;;4848704;29;20045;-87
2023/09/18 09:45:38;;;;;;;13.47;9.07;;;24.90;58.40;;;;;;4848519;29;20055;-87
2023/09/18 09:48:06;;;;;;;14.88;9.00;;;24.90;60.20;;;;;;4848561;29;20152;-87
2023/09/18 09:50:57;;;;;;;12.98;9.40;;;25.00;59.00;;;;;;4848679;29;20053;-87
2023/09/18 09:53:48;;;;;;;15.30;9.77;;;25.00;59.40;;;;;;4848425;29;20101;-87
2023/09/18 09:56:19;;;;;;;17.75;8.60;;;25.10;58.90;;;;;;4863947;29;20533;-87
2023/09/18 09:59:08;;;;;;;15.23;8.83;;;25.20;57.70;;;;;;4848508;29;20054;-87
2023/09/18 10:01:36;;;;;;;13.85;9.02;;;25.20;57.60;;;;;;4859726;29;20383;-86
2023/09/18 10:04:16;;;;;;;13.98;9.10;;;25.20;60.10;;;;;;4882555;29;20503;-87
2023/09/18 10:06:47;;;;;;;13.45;7.72;;;25.40;59.70;;;;;;4882110;29;20052;-87
2023/09/18 10:09:16;;;;;;;13.90;7.85;;;25.40;57.00;;;;;;4866790;29;20506;-86
2023/09/18 10:11:52;;;;;;;14.10;7.43;;;25.50;57.00;;;;;;4869189;29;20052;-87
2023/09/18 10:14:30;;;;;;;13.77;7.20;;;25.50;55.60;;;;;;4885636;29;20053;-87
2023/09/18 10:17:17;;;;;;;13.55;7.50;;;25.30;56.00;;;;;;4885804;29;20100;-86
2023/09/18 10:20:07;;;;;;;16.48;7.78;;;25.40;55.60;;;;;;4885418;29;20234;-87
2023/09/18 10:22:42;;;;;;;15.05;8.35;;;25.30;56.60;;;;;;4885308;29;20044;-87
2023/09/18 10:25:13;;;;;;;13.17;7.00;;;25.40;58.10;;;;;;4885631;29;20048;-87
2023/09/18 10:27:41;;;;;;;12.98;7.38;;;25.60;56.20;;;;;;4885865;29;20398;-87
2023/09/18 10:30:11;;;;;;;12.05;7.15;;;25.60;56.00;;;;;;4885423;29;20458;-87
2023/09/18 10:32:40;;;;;;;12.02;6.85;;;25.70;55.20;;;;;;4885205;29;20052;-86
2023/09/18 10:35:08;;;;;;;12.07;6.97;;;25.60;55.40;;;;;;4885350;29;20080;-86
2023/09/18 10:37:37;;;;;;;11.33;6.70;;;25.60;55.60;;;;;;4870024;29;20089;-87
2023/09/18 10:40:08;;;;;;;13.43;6.10;;;25.60;55.60;;;;;;4869826;29;20044;-86
2023/09/18 10:42:38;;;;;;;12.50;6.72;;;25.60;55.20;;;;;;4885323;29;20052;-87
2023/09/18 10:45:10;;;;;;;14.25;7.43;;;25.50;55.20;;;;;;4885253;29;20411;-87
2023/09/18 10:47:41;;;;;;;12.15;7.45;;;25.50;55.60;;;;;;4884974;29;20049;-87
2023/09/18 10:50:12;;;;;;;9.90;6.63;;;25.50;55.60;;;;;;4885123;29;20529;-87
2023/09/18 10:52:44;;;;;;;10.85;6.75;;;25.50;56.40;;;;;;4884788;29;20057;-87
2023/09/18 10:55:14;;;;;;;12.18;6.82;;;25.70;57.00;;;;;;4880435;29;20136;-87
2023/09/18 10:57:56;;;;;;;10.02;6.10;;;25.80;55.10;;;;;;4850930;29;20064;-87
2023/09/18 11:00:28;;;;;;;16.20;7.88;;;25.80;54.90;;;;;;4850958;29;20048;-86
2023/09/18 11:03:17;;;;;;;16.30;6.07;;;25.80;54.40;;;;;;4866198;29;20051;-87
2023/09/18 11:05:46;;;;;;;14.52;6.45;;;25.80;54.80;;;;;;4859347;29;20136;-87
2023/09/18 11:08:28;;;;;;;10.52;6.03;;;25.80;54.90;;;;;;4884693;29;20147;-87
2023/09/18 11:11:04;;;;;;;12.15;6.50;;;26.00;54.30;;;;;;4884622;29;20148;-87
2023/09/18 11:13:35;;;;;;;10.68;5.95;;;26.00;54.20;;;;;;4884692;29;20455;-87
2023/09/18 11:16:21;;;;;;;11.57;5.47;;;25.90;53.70;;;;;;4884578;29;20053;-86
2023/09/18 11:19:03;;;;;;;12.07;5.40;;;25.90;52.20;;;;;;4884149;29;20059;-87
2023/09/18 11:21:33;;;;;;;10.93;5.80;;;26.00;53.30;;;;;;4884180;29;20116;-87
2023/09/18 11:24:11;;;;;;;13.13;6.07;;;26.00;53.80;;;;;;4882306;29;20045;-87
2023/09/18 11:26:42;;;;;;;11.85;6.15;;;26.10;53.20;;;;;;4850610;29;20498;-87
2023/09/18 11:29:13;;;;;;;9.17;5.20;;;26.30;54.00;;;;;;4866101;29;20130;-87
2023/09/18 11:31:55;;;;;;;10.90;5.80;;;26.40;53.20;;;;;;4850687;29;20061;-86
2023/09/18 11:34:45;;;;;;;9.10;5.53;;;26.40;52.90;;;;;;4865739;29;20056;-87
2023/09/18 11:37:22;;;;;;;8.93;5.07;;;26.50;53.00;;;;;;4850324;29;20053;-86
2023/09/18 11:39:49;;;;;;;11.43;5.93;;;26.50;51.60;;;;;;4850227;29;20056;-87
2023/09/18 11:42:28;;;;;;;9.67;6.33;;;26.50;52.10;;;;;;4865712;29;20411;-87
2023/09/18 11:44:56;;;;;;;10.50;5.40;;;26.60;52.40;;;;;;4850260;29;20059;-86
2023/09/18 11:47:26;;;;;;;8.65;5.30;;;26.70;51.90;;;;;;4850207;29;20055;-87
2023/09/18 11:49:57;;;;;;;11.25;5.22;;;26.80;51.70;;;;;;4850116;29;20063;-87
2023/09/18 11:52:27;;;;;;;13.27;5.28;;;26.60;51.10;;;;;;4865676;29;20053;-87
2023/09/18 11:54:58;;;;;;;9.70;5.80;;;26.60;51.90;;;;;;4851024;29;20048;-87
2023/09/18 11:57:27;;;;;;;9.18;5.45;;;26.70;52.70;;;;;;4873059;29;20418;-87
2023/09/18 11:59:55;;;;;;;11.20;5.78;;;26.90;52.20;;;;;;4849828;29;20132;-87
2023/09/18 12:02:36;;;;;;;10.65;4.93;;;27.00;50.60;;;;;;4853812;29;20100;-86
2023/09/18 12:05:17;;;;;;;10.02;5.50;;;27.00;49.20;;;;;;4883503;29;20064;-87
2023/09/18 12:07:45;;;;;;;9.10;5.03;;;27.00;50.90;;;;;;4883764;29;20116;-87
2023/09/18 12:10:17;;;;;;;11.15;5.30;;;26.90;51.20;;;;;;4884101;29;20474;-87
2023/09/18 12:12:45;;;;;;;9.55;5.10;;;27.00;51.20;;;;;;4883897;29;20068;-87
2023/09/18 12:15:17;;;;;;;8.48;5.03;;;26.90;50.50;;;;;;4883429;29;20059;-87
2023/09/18 12:17:45;;;;;;;9.43;5.55;;;26.90;50.20;;;;;;4883576;29;20152;-87
2023/09/18 12:20:20;;;;;;;9.33;5.00;;;26.70;50.80;;;;;;4883517;29;20448;-87
2023/09/18 12:22:48;;;;;;;10.70;5.55;;;26.90;51.30;;;;;;4883515;29;20051;-87
2023/09/18 12:25:18;;;;;;;9.18;4.90;;;27.10;51.70;;;;;;4883332;29;20062;-87
2023/09/18 12:27:45;;;;;;;10.75;5.43;;;27.10;50.60;;;;;;4883594;29;20538;-87
2023/09/18 12:30:19;;;;;;;11.82;5.25;;;27.30;51.50;;;;;;4883154;29;20101;-87
2023/09/18 12:32:49;;;;;;;12.47;5.13;;;27.40;50.30;;;;;;4882850;29;20072;-87
2023/09/18 12:35:18;;;;;;;9.77;5.68;;;27.30;49.00;;;;;;4882901;29;20136;-87
2023/09/18 12:37:45;;;;;;;11.70;5.75;;;27.30;48.80;;;;;;4883378;29;20048;-87
2023/09/18 12:40:22;;;;;;;13.82;5.35;;;27.20;49.20;;;;;;4882982;29;20139;-87
2023/09/18 12:42:50;;;;;;;54.40;7.95;;;27.30;49.30;;;;;;4883177;29;20163;-87
2023/09/18 12:45:18;;;;;;;9.93;5.37;;;27.20;48.30;;;;;;4882972;29;20052;-87
2023/09/18 12:47:45;;;;;;;12.02;5.60;;;27.20;48.00;;;;;;4867835;29;20049;-87
2023/09/18 12:50:15;;;;;;;10.65;6.10;;;27.10;48.30;;;;;;4882841;29;20056;-87